< < Back
Terminal Aerodrome Forecast


Current Version              Previous Versions:   1  2  3  4  5  6  7  8  9  

Terminal Aerodrome Forecast

500
FTUS44 KOHX 272116 AAA
TAFBNA
TAF AMD
KBNA 272116Z 2721/2818 19008KT P6SM VCSH SCT060 BKN120 BKN200
     FM280000 16005KT P6SM BKN250
     FM281200 19010KT P6SM SCT050 OVC120=

Latest METAR

740
SAUS70 KWBC 280000 RRI
MTRBNA
METAR KBNA 272353Z 24003KT 10SM FEW065 BKN150 BKN250 28/17 A2995 RMK AO2
SLP135 60000 T02780172 10317 20278 55003


USA.gov is the U.S. government's official web portal to all federal, state and local government web resources and services.